Seiyu Maru — JD3189 — position and weather

sailwx.info

Track history (hours):
 
Tides and Currents Weather Stations Pressure Air Temp Water Temp Dewpoint Dewpoint Depression Visibility Wind Speed Wind Dir Waves Ship Positions

Seiyu Maru

Last reported at 2015-Apr-27 10:33 UTC. Time now 2015-Apr-27 10:36 UTC.
Position N 34°35' E 135°26'.

Length 75 m; draft 4.5 m.

Type: Cargo ship. MMSI: 431002433.

Date/timePositionNaut miles runAvg speedWind from/ knotsBaromVisibWave heightAir tempDewpointWater temp
2015-Apr-27 10:33N 34°35' E 135°26'0 0.0
2015-Apr-27 09:34N 34°35' E 135°26'0 0.0
2015-Apr-27 08:34N 34°35' E 135°26'0 0.0
2015-Apr-27 07:34N 34°35' E 135°26'0 0.0
2015-Apr-27 06:33N 34°35' E 135°26'0 0.0
2015-Apr-27 05:34N 34°35' E 135°26'0 0.0
2015-Apr-27 04:33N 34°35' E 135°26'0 0.0
2015-Apr-27 03:33N 34°35' E 135°26'0 0.0
2015-Apr-27 02:33N 34°35' E 135°26'0 0.0
2015-Apr-27 01:32N 34°35' E 135°26'0 0.0
2015-Apr-27 00:34N 34°35' E 135°26'0 0.0
2015-Apr-26 23:34N 34°35' E 135°26'0 0.0
2015-Apr-26 22:32N 34°35' E 135°26'1 0.0
2015-Apr-25 06:32N 34°34' E 135°27'0 0.0
2015-Apr-25 05:28N 34°34' E 135°27'0 0.0
2015-Apr-25 04:33N 34°34' E 135°27'0 0.0
2015-Apr-25 02:31N 34°34' E 135°27'0 0.0
2015-Apr-25 01:33N 34°34' E 135°27'0 0.0
2015-Apr-25 00:33N 34°34' E 135°27'0 0.0
2015-Apr-24 23:33N 34°34' E 135°27'1 0.9
2015-Apr-24 22:17N 34°35' E 135°28'0 0.0
2015-Apr-24 21:26N 34°35' E 135°28'0 0.0
2015-Apr-24 06:33N 34°35' E 135°28'4 4.2
2015-Apr-24 05:33N 34°36' E 135°23'1111.4
2015-Apr-24 04:33N 34°29' E 135°12'1311.4
2015-Apr-24 03:26N 34°20' E 135°02'1010.7
2015-Apr-24 02:31N 34°10' E 134°60'257 9.4
2015-Apr-22 23:23N 34°57' E 140°06'1011.3
2015-Apr-22 22:30N 35°03' E 140°16'1010.8
2015-Apr-22 21:33N 35°09' E 140°26'1210.6
2015-Apr-22 20:27N 35°18' E 140°35'1010.8
2015-Apr-22 19:33N 35°26' E 140°42'1111.2
2015-Apr-22 18:32N 35°35' E 140°50'1110.8
2015-Apr-22 17:33N 35°45' E 140°55'1110.5
2015-Apr-22 16:33N 35°54' E 140°49'7 6.6
2015-Apr-22 15:34N 35°55' E 140°41'1 1.0
2015-Apr-22 14:33N 35°56' E 140°40'0 0.0
2015-Apr-22 13:33N 35°56' E 140°40'0 0.0
2015-Apr-22 12:10N 35°56' E 140°40'  
2015-Apr-19 01:16N 35°55' E 140°41'4 1.2
2015-Apr-18 22:04N 35°59' E 140°42'0 0.0
2015-Apr-18 19:28N 35°59' E 140°42'0 0.0
2015-Apr-18 18:10N 35°59' E 140°42'0 0.2
2015-Apr-18 17:26N 35°59' E 140°42'2311.5
2015-Apr-18 15:28N 35°39' E 140°56'3013.0
2015-Apr-18 13:07N 35°15' E 140°33'2212.9
2015-Apr-18 11:23N 34°60' E 140°13'1412.1
2015-Apr-18 10:13N 34°53' E 139°58'911.7
2015-Apr-18 09:27N 34°54' E 139°47'1011.0
2015-Apr-18 08:33N 35°03' E 139°44'1111.1
2015-Apr-18 07:33N 35°14' E 139°47'1110.6
2015-Apr-18 06:33N 35°24' E 139°43'1110.8
2015-Apr-18 05:33N 35°33' E 139°51'5 5.1
2015-Apr-18 04:33N 35°38' E 139°48'  
Track history (hours):
 
Tides and Currents Weather Stations Pressure Air Temp Water Temp Dewpoint Dewpoint Depression Visibility Wind Speed Wind Dir Waves Ship Positions

Seiyu Maru

Last reported at 2015-Apr-27 10:33 UTC. Time now 2015-Apr-27 10:36 UTC.
Position N 34°35' E 135°26'.

Length 75 m; draft 4.5 m.

Type: Cargo ship. MMSI: 431002433.

Date/timePositionNaut miles runAvg speedWind from/ knotsBaromVisibWave heightAir tempDewpointWater temp
2015-Apr-27 10:33N 34°35' E 135°26'0 0.0
2015-Apr-27 09:34N 34°35' E 135°26'0 0.0
2015-Apr-27 08:34N 34°35' E 135°26'0 0.0
2015-Apr-27 07:34N 34°35' E 135°26'0 0.0
2015-Apr-27 06:33N 34°35' E 135°26'0 0.0
2015-Apr-27 05:34N 34°35' E 135°26'0 0.0
2015-Apr-27 04:33N 34°35' E 135°26'0 0.0
2015-Apr-27 03:33N 34°35' E 135°26'0 0.0
2015-Apr-27 02:33N 34°35' E 135°26'0 0.0
2015-Apr-27 01:32N 34°35' E 135°26'0 0.0
2015-Apr-27 00:34N 34°35' E 135°26'0 0.0
2015-Apr-26 23:34N 34°35' E 135°26'0 0.0
2015-Apr-26 22:32N 34°35' E 135°26'1 0.0
2015-Apr-25 06:32N 34°34' E 135°27'0 0.0
2015-Apr-25 05:28N 34°34' E 135°27'0 0.0
2015-Apr-25 04:33N 34°34' E 135°27'0 0.0
2015-Apr-25 02:31N 34°34' E 135°27'0 0.0
2015-Apr-25 01:33N 34°34' E 135°27'0 0.0
2015-Apr-25 00:33N 34°34' E 135°27'0 0.0
2015-Apr-24 23:33N 34°34' E 135°27'1 0.9
2015-Apr-24 22:17N 34°35' E 135°28'0 0.0
2015-Apr-24 21:26N 34°35' E 135°28'0 0.0
2015-Apr-24 06:33N 34°35' E 135°28'4 4.2
2015-Apr-24 05:33N 34°36' E 135°23'1111.4
2015-Apr-24 04:33N 34°29' E 135°12'1311.4
2015-Apr-24 03:26N 34°20' E 135°02'1010.7
2015-Apr-24 02:31N 34°10' E 134°60'257 9.4
2015-Apr-22 23:23N 34°57' E 140°06'1011.3
2015-Apr-22 22:30N 35°03' E 140°16'1010.8
2015-Apr-22 21:33N 35°09' E 140°26'1210.6
2015-Apr-22 20:27N 35°18' E 140°35'1010.8
2015-Apr-22 19:33N 35°26' E 140°42'1111.2
2015-Apr-22 18:32N 35°35' E 140°50'1110.8
2015-Apr-22 17:33N 35°45' E 140°55'1110.5
2015-Apr-22 16:33N 35°54' E 140°49'7 6.6
2015-Apr-22 15:34N 35°55' E 140°41'1 1.0
2015-Apr-22 14:33N 35°56' E 140°40'0 0.0
2015-Apr-22 13:33N 35°56' E 140°40'0 0.0
2015-Apr-22 12:10N 35°56' E 140°40'  
2015-Apr-19 01:16N 35°55' E 140°41'4 1.2
2015-Apr-18 22:04N 35°59' E 140°42'0 0.0
2015-Apr-18 19:28N 35°59' E 140°42'0 0.0
2015-Apr-18 18:10N 35°59' E 140°42'0 0.2
2015-Apr-18 17:26N 35°59' E 140°42'2311.5
2015-Apr-18 15:28N 35°39' E 140°56'3013.0
2015-Apr-18 13:07N 35°15' E 140°33'2212.9
2015-Apr-18 11:23N 34°60' E 140°13'1412.1
2015-Apr-18 10:13N 34°53' E 139°58'911.7
2015-Apr-18 09:27N 34°54' E 139°47'1011.0
2015-Apr-18 08:33N 35°03' E 139°44'1111.1
2015-Apr-18 07:33N 35°14' E 139°47'1110.6
2015-Apr-18 06:33N 35°24' E 139°43'1110.8
2015-Apr-18 05:33N 35°33' E 139°51'5 5.1
2015-Apr-18 04:33N 35°38' E 139°48'  

Dump ship's entire track history